sensor_id;sensor_type;location;lat;lon;timestamp;P1;durP1;ratioP1;P2;durP2;ratioP2
18867;SDS011;9563;49.240;9.088;2023-09-19T04:00:17;2.45;;;1.70;;
18867;SDS011;9563;49.240;9.088;2023-09-19T04:02:46;3.15;;;1.90;;
18867;SDS011;9563;49.240;9.088;2023-09-19T04:05:13;3.50;;;2.00;;
18867;SDS011;9563;49.240;9.088;2023-09-19T04:07:40;7.53;;;2.20;;
18867;SDS011;9563;49.240;9.088;2023-09-19T04:10:07;5.05;;;1.80;;
18867;SDS011;9563;49.240;9.088;2023-09-19T04:12:36;4.07;;;1.70;;
18867;SDS011;9563;49.240;9.088;2023-09-19T04:15:03;5.55;;;1.80;;
18867;SDS011;9563;49.240;9.088;2023-09-19T04:17:32;4.10;;;1.70;;
18867;SDS011;9563;49.240;9.088;2023-09-19T04:19:59;5.40;;;1.75;;
18867;SDS011;9563;49.240;9.088;2023-09-19T04:22:26;3.42;;;1.83;;
18867;SDS011;9563;49.240;9.088;2023-09-19T04:24:53;6.35;;;2.20;;
18867;SDS011;9563;49.240;9.088;2023-09-19T04:27:20;3.08;;;2.28;;
18867;SDS011;9563;49.240;9.088;2023-09-19T04:29:48;5.10;;;3.10;;
18867;SDS011;9563;49.240;9.088;2023-09-19T04:32:15;5.90;;;2.10;;
18867;SDS011;9563;49.240;9.088;2023-09-19T04:34:44;6.65;;;2.22;;
18867;SDS011;9563;49.240;9.088;2023-09-19T04:37:11;4.10;;;2.00;;
18867;SDS011;9563;49.240;9.088;2023-09-19T04:39:40;5.70;;;2.10;;
18867;SDS011;9563;49.240;9.088;2023-09-19T04:42:07;4.53;;;1.80;;
18867;SDS011;9563;49.240;9.088;2023-09-19T04:44:36;5.90;;;2.00;;
18867;SDS011;9563;49.240;9.088;2023-09-19T04:47:03;6.10;;;1.98;;
18867;SDS011;9563;49.240;9.088;2023-09-19T04:49:31;4.82;;;2.30;;
18867;SDS011;9563;49.240;9.088;2023-09-19T04:51:59;4.68;;;2.20;;
18867;SDS011;9563;49.240;9.088;2023-09-19T04:54:26;4.72;;;2.20;;
18867;SDS011;9563;49.240;9.088;2023-09-19T04:56:53;4.00;;;1.95;;
18867;SDS011;9563;49.240;9.088;2023-09-19T04:59:20;7.55;;;1.75;;
18867;SDS011;9563;49.240;9.088;2023-09-19T05:01:48;3.90;;;1.65;;
18867;SDS011;9563;49.240;9.088;2023-09-19T05:04:14;6.65;;;1.85;;
18867;SDS011;9563;49.240;9.088;2023-09-19T05:06:42;8.88;;;1.95;;
18867;SDS011;9563;49.240;9.088;2023-09-19T05:09:10;6.78;;;2.35;;
18867;SDS011;9563;49.240;9.088;2023-09-19T05:11:38;9.75;;;2.17;;
18867;SDS011;9563;49.240;9.088;2023-09-19T05:14:05;3.17;;;2.00;;
18867;SDS011;9563;49.240;9.088;2023-09-19T05:16:35;5.88;;;2.10;;
18867;SDS011;9563;49.240;9.088;2023-09-19T05:19:01;4.25;;;2.30;;
18867;SDS011;9563;49.240;9.088;2023-09-19T05:21:28;3.72;;;1.90;;
18867;SDS011;9563;49.240;9.088;2023-09-19T05:23:58;5.75;;;2.00;;
18867;SDS011;9563;49.240;9.088;2023-09-19T05:26:26;6.65;;;2.35;;
18867;SDS011;9563;49.240;9.088;2023-09-19T05:28:53;8.55;;;2.17;;
18867;SDS011;9563;49.240;9.088;2023-09-19T05:31:20;6.20;;;2.05;;
18867;SDS011;9563;49.240;9.088;2023-09-19T05:33:48;6.85;;;1.67;;
18867;SDS011;9563;49.240;9.088;2023-09-19T05:36:15;8.77;;;2.20;;
18867;SDS011;9563;49.240;9.088;2023-09-19T05:38:42;5.38;;;1.85;;
18867;SDS011;9563;49.240;9.088;2023-09-19T05:41:09;6.15;;;1.92;;
18867;SDS011;9563;49.240;9.088;2023-09-19T05:43:40;4.53;;;2.00;;
18867;SDS011;9563;49.240;9.088;2023-09-19T05:46:07;6.85;;;1.90;;
18867;SDS011;9563;49.240;9.088;2023-09-19T05:48:34;5.45;;;2.25;;
18867;SDS011;9563;49.240;9.088;2023-09-19T05:51:01;7.10;;;1.70;;
18867;SDS011;9563;49.240;9.088;2023-09-19T05:53:27;4.93;;;2.03;;
18867;SDS011;9563;49.240;9.088;2023-09-19T05:55:55;11.45;;;2.22;;
18867;SDS011;9563;49.240;9.088;2023-09-19T05:58:21;7.97;;;1.77;;
18867;SDS011;9563;49.240;9.088;2023-09-19T06:00:50;5.82;;;1.52;;
18867;SDS011;9563;49.240;9.088;2023-09-19T06:03:17;4.45;;;1.92;;
18867;SDS011;9563;49.240;9.088;2023-09-19T06:05:45;9.15;;;1.80;;
18867;SDS011;9563;49.240;9.088;2023-09-19T06:08:14;6.85;;;2.20;;
18867;SDS011;9563;49.240;9.088;2023-09-19T06:10:41;7.90;;;2.13;;
18867;SDS011;9563;49.240;9.088;2023-09-19T06:13:08;3.13;;;1.50;;
18867;SDS011;9563;49.240;9.088;2023-09-19T06:15:35;5.72;;;2.45;;
18867;SDS011;9563;49.240;9.088;2023-09-19T06:18:05;4.15;;;2.00;;
18867;SDS011;9563;49.240;9.088;2023-09-19T06:20:38;3.20;;;1.80;;
18867;SDS011;9563;49.240;9.088;2023-09-19T06:23:09;5.15;;;2.30;;
18867;SDS011;9563;49.240;9.088;2023-09-19T06:25:36;8.20;;;2.10;;
18867;SDS011;9563;49.240;9.088;2023-09-19T06:28:03;9.40;;;2.78;;
18867;SDS011;9563;49.240;9.088;2023-09-19T06:30:33;4.93;;;1.85;;
18867;SDS011;9563;49.240;9.088;2023-09-19T06:33:00;6.55;;;2.30;;
18867;SDS011;9563;49.240;9.088;2023-09-19T06:35:31;8.57;;;2.35;;
18867;SDS011;9563;49.240;9.088;2023-09-19T06:38:01;6.60;;;2.50;;
18867;SDS011;9563;49.240;9.088;2023-09-19T06:40:29;6.80;;;2.60;;
18867;SDS011;9563;49.240;9.088;2023-09-19T06:42:56;6.93;;;2.38;;
18867;SDS011;9563;49.240;9.088;2023-09-19T06:45:23;5.68;;;2.58;;
18867;SDS011;9563;49.240;9.088;2023-09-19T06:47:51;8.13;;;3.08;;
18867;SDS011;9563;49.240;9.088;2023-09-19T06:50:20;7.22;;;2.50;;
18867;SDS011;9563;49.240;9.088;2023-09-19T06:52:50;4.25;;;2.50;;
18867;SDS011;9563;49.240;9.088;2023-09-19T06:55:19;9.57;;;2.80;;
18867;SDS011;9563;49.240;9.088;2023-09-19T06:57:48;4.97;;;2.58;;
18867;SDS011;9563;49.240;9.088;2023-09-19T07:00:16;7.13;;;3.10;;
18867;SDS011;9563;49.240;9.088;2023-09-19T07:02:44;11.98;;;3.30;;
18867;SDS011;9563;49.240;9.088;2023-09-19T07:05:11;6.60;;;3.78;;
18867;SDS011;9563;49.240;9.088;2023-09-19T07:07:38;6.13;;;3.90;;
18867;SDS011;9563;49.240;9.088;2023-09-19T07:10:08;4.88;;;3.58;;
18867;SDS011;9563;49.240;9.088;2023-09-19T07:12:36;7.45;;;3.42;;
18867;SDS011;9563;49.240;9.088;2023-09-19T07:15:03;7.28;;;4.60;;
18867;SDS011;9563;49.240;9.088;2023-09-19T07:17:31;10.48;;;4.80;;
18867;SDS011;9563;49.240;9.088;2023-09-19T07:19:58;7.55;;;5.03;;
18867;SDS011;9563;49.240;9.088;2023-09-19T07:22:32;12.80;;;5.28;;
18867;SDS011;9563;49.240;9.088;2023-09-19T07:24:59;7.85;;;4.53;;
18867;SDS011;9563;49.240;9.088;2023-09-19T07:27:27;7.07;;;4.30;;
18867;SDS011;9563;49.240;9.088;2023-09-19T07:29:54;6.88;;;3.90;;
18867;SDS011;9563;49.240;9.088;2023-09-19T07:32:21;8.88;;;3.80;;
18867;SDS011;9563;49.240;9.088;2023-09-19T07:34:50;5.97;;;3.25;;
18867;SDS011;9563;49.240;9.088;2023-09-19T07:37:18;10.50;;;3.00;;
18867;SDS011;9563;49.240;9.088;2023-09-19T07:39:46;5.72;;;2.78;;
18867;SDS011;9563;49.240;9.088;2023-09-19T07:42:13;4.30;;;2.65;;
18867;SDS011;9563;49.240;9.088;2023-09-19T07:44:44;8.05;;;2.47;;
18867;SDS011;9563;49.240;9.088;2023-09-19T07:47:12;5.47;;;2.45;;
18867;SDS011;9563;49.240;9.088;2023-09-19T07:49:39;5.72;;;2.45;;
18867;SDS011;9563;49.240;9.088;2023-09-19T07:52:07;7.10;;;2.53;;
18867;SDS011;9563;49.240;9.088;2023-09-19T07:54:34;6.30;;;2.00;;
18867;SDS011;9563;49.240;9.088;2023-09-19T07:57:03;6.15;;;2.15;;
18867;SDS011;9563;49.240;9.088;2023-09-19T07:59:30;6.80;;;2.00;;
18867;SDS011;9563;49.240;9.088;2023-09-19T08:01:58;4.75;;;1.85;;
18867;SDS011;9563;49.240;9.088;2023-09-19T08:04:25;4.45;;;1.77;;
18867;SDS011;9563;49.240;9.088;2023-09-19T08:06:52;9.15;;;1.90;;
18867;SDS011;9563;49.240;9.088;2023-09-19T08:09:21;6.13;;;1.52;;
18867;SDS011;9563;49.240;9.088;2023-09-19T08:11:48;8.38;;;1.63;;
18867;SDS011;9563;49.240;9.088;2023-09-19T08:14:24;6.72;;;1.75;;
18867;SDS011;9563;49.240;9.088;2023-09-19T08:16:51;5.00;;;1.42;;
18867;SDS011;9563;49.240;9.088;2023-09-19T08:19:23;3.60;;;1.30;;
18867;SDS011;9563;49.240;9.088;2023-09-19T08:21:53;2.35;;;1.20;;
18867;SDS011;9563;49.240;9.088;2023-09-19T08:24:21;7.10;;;1.85;;
18867;SDS011;9563;49.240;9.088;2023-09-19T08:26:48;6.53;;;1.50;;
18867;SDS011;9563;49.240;9.088;2023-09-19T08:29:16;3.95;;;1.17;;
18867;SDS011;9563;49.240;9.088;2023-09-19T08:31:47;4.75;;;1.10;;
18867;SDS011;9563;49.240;9.088;2023-09-19T08:34:17;6.03;;;1.13;;
18867;SDS011;9563;49.240;9.088;2023-09-19T08:36:45;4.57;;;1.30;;
18867;SDS011;9563;49.240;9.088;2023-09-19T08:39:14;5.93;;;1.52;;
18867;SDS011;9563;49.240;9.088;2023-09-19T08:41:43;2.47;;;1.10;;
18867;SDS011;9563;49.240;9.088;2023-09-19T08:44:10;3.78;;;1.02;;
18867;SDS011;9563;49.240;9.088;2023-09-19T08:46:44;4.82;;;1.20;;
18867;SDS011;9563;49.240;9.088;2023-09-19T08:49:16;3.67;;;1.10;;
18867;SDS011;9563;49.240;9.088;2023-09-19T08:51:52;5.03;;;1.20;;
18867;SDS011;9563;49.240;9.088;2023-09-19T08:54:29;3.63;;;1.42;;
18867;SDS011;9563;49.240;9.088;2023-09-19T08:57:05;2.63;;;1.00;;
18867;SDS011;9563;49.240;9.088;2023-09-19T08:59:37;6.68;;;1.83;;
18867;SDS011;9563;49.240;9.088;2023-09-19T09:02:08;3.38;;;1.50;;
18867;SDS011;9563;49.240;9.088;2023-09-19T09:04:43;7.93;;;1.65;;
18867;SDS011;9563;49.240;9.088;2023-09-19T09:07:12;2.90;;;1.45;;
18867;SDS011;9563;49.240;9.088;2023-09-19T09:09:39;7.78;;;1.17;;
18867;SDS011;9563;49.240;9.088;2023-09-19T09:12:08;6.43;;;1.73;;
18867;SDS011;9563;49.240;9.088;2023-09-19T09:14:37;3.45;;;1.13;;
18867;SDS011;9563;49.240;9.088;2023-09-19T09:17:04;4.72;;;1.55;;
18867;SDS011;9563;49.240;9.088;2023-09-19T09:19:32;5.15;;;1.55;;
18867;SDS011;9563;49.240;9.088;2023-09-19T09:22:05;3.83;;;1.60;;
18867;SDS011;9563;49.240;9.088;2023-09-19T09:24:35;8.75;;;1.40;;
18867;SDS011;9563;49.240;9.088;2023-09-19T09:27:05;6.35;;;1.67;;
18867;SDS011;9563;49.240;9.088;2023-09-19T09:29:42;3.22;;;1.63;;
18867;SDS011;9563;49.240;9.088;2023-09-19T09:32:21;7.40;;;1.55;;
18867;SDS011;9563;49.240;9.088;2023-09-19T09:34:50;3.65;;;1.20;;
18867;SDS011;9563;49.240;9.088;2023-09-19T09:37:18;3.35;;;1.25;;
18867;SDS011;9563;49.240;9.088;2023-09-19T09:39:52;6.03;;;1.50;;
18867;SDS011;9563;49.240;9.088;2023-09-19T09:42:32;3.00;;;1.23;;
18867;SDS011;9563;49.240;9.088;2023-09-19T09:47:54;5.38;;;1.55;;
18867;SDS011;9563;49.240;9.088;2023-09-19T09:50:24;4.28;;;1.40;;
18867;SDS011;9563;49.240;9.088;2023-09-19T09:52:54;7.20;;;1.70;;
18867;SDS011;9563;49.240;9.088;2023-09-19T09:55:33;3.15;;;1.23;;
18867;SDS011;9563;49.240;9.088;2023-09-19T09:58:23;3.85;;;1.20;;
18867;SDS011;9563;49.240;9.088;2023-09-19T10:00:54;8.63;;;1.40;;
18867;SDS011;9563;49.240;9.088;2023-09-19T10:03:31;7.13;;;1.20;;
18867;SDS011;9563;49.240;9.088;2023-09-19T10:06:03;6.53;;;1.30;;
18867;SDS011;9563;49.240;9.088;2023-09-19T10:08:57;6.65;;;1.85;;
18867;SDS011;9563;49.240;9.088;2023-09-19T10:11:34;4.55;;;1.55;;
18867;SDS011;9563;49.240;9.088;2023-09-19T10:14:02;3.30;;;1.30;;
18867;SDS011;9563;49.240;9.088;2023-09-19T10:16:31;2.58;;;0.90;;
18867;SDS011;9563;49.240;9.088;2023-09-19T10:19:01;3.47;;;1.30;;
18867;SDS011;9563;49.240;9.088;2023-09-19T10:21:32;1.95;;;0.90;;
18867;SDS011;9563;49.240;9.088;2023-09-19T10:24:01;6.95;;;1.63;;
18867;SDS011;9563;49.240;9.088;2023-09-19T10:26:35;7.35;;;1.38;;
18867;SDS011;9563;49.240;9.088;2023-09-19T10:29:05;5.18;;;1.30;;
18867;SDS011;9563;49.240;9.088;2023-09-19T10:31:35;5.28;;;1.33;;
18867;SDS011;9563;49.240;9.088;2023-09-19T10:34:05;6.55;;;1.20;;
18867;SDS011;9563;49.240;9.088;2023-09-19T10:36:35;5.30;;;1.30;;
18867;SDS011;9563;49.240;9.088;2023-09-19T10:39:04;8.30;;;1.15;;
18867;SDS011;9563;49.240;9.088;2023-09-19T10:41:38;2.63;;;1.13;;
18867;SDS011;9563;49.240;9.088;2023-09-19T10:44:05;2.97;;;1.15;;
18867;SDS011;9563;49.240;9.088;2023-09-19T10:46:34;4.50;;;1.10;;
18867;SDS011;9563;49.240;9.088;2023-09-19T10:49:03;4.20;;;1.17;;
18867;SDS011;9563;49.240;9.088;2023-09-19T10:51:31;3.75;;;0.93;;
18867;SDS011;9563;49.240;9.088;2023-09-19T10:54:09;2.72;;;1.17;;
18867;SDS011;9563;49.240;9.088;2023-09-19T10:56:43;7.70;;;1.42;;
18867;SDS011;9563;49.240;9.088;2023-09-19T10:59:16;8.05;;;1.48;;
18867;SDS011;9563;49.240;9.088;2023-09-19T11:01:45;5.38;;;1.50;;
18867;SDS011;9563;49.240;9.088;2023-09-19T11:04:26;5.72;;;1.00;;
18867;SDS011;9563;49.240;9.088;2023-09-19T11:07:04;4.28;;;1.42;;
18867;SDS011;9563;49.240;9.088;2023-09-19T11:09:44;4.00;;;1.00;;
18867;SDS011;9563;49.240;9.088;2023-09-19T11:24:27;5.90;;;1.40;;
18867;SDS011;9563;49.240;9.088;2023-09-19T11:27:10;4.20;;;1.00;;
18867;SDS011;9563;49.240;9.088;2023-09-19T11:29:40;2.72;;;0.93;;
18867;SDS011;9563;49.240;9.088;2023-09-19T11:32:07;5.30;;;1.00;;
18867;SDS011;9563;49.240;9.088;2023-09-19T11:34:44;2.78;;;1.08;;
18867;SDS011;9563;49.240;9.088;2023-09-19T11:40:44;3.00;;;1.35;;
18867;SDS011;9563;49.240;9.088;2023-09-19T11:43:32;4.28;;;1.23;;
18867;SDS011;9563;49.240;9.088;2023-09-19T11:46:15;4.07;;;0.93;;
18867;SDS011;9563;49.240;9.088;2023-09-19T11:48:47;6.15;;;1.00;;
18867;SDS011;9563;49.240;9.088;2023-09-19T11:51:15;2.28;;;1.00;;
18867;SDS011;9563;49.240;9.088;2023-09-19T11:53:52;2.35;;;0.93;;
18867;SDS011;9563;49.240;9.088;2023-09-19T11:56:21;3.58;;;1.17;;
18867;SDS011;9563;49.240;9.088;2023-09-19T11:58:49;2.70;;;1.20;;
18867;SDS011;9563;49.240;9.088;2023-09-19T12:01:22;4.53;;;1.05;;
18867;SDS011;9563;49.240;9.088;2023-09-19T12:03:59;4.72;;;1.10;;
18867;SDS011;9563;49.240;9.088;2023-09-19T12:06:27;3.70;;;1.33;;
18867;SDS011;9563;49.240;9.088;2023-09-19T12:08:57;3.08;;;1.40;;
18867;SDS011;9563;49.240;9.088;2023-09-19T12:11:29;1.35;;;1.00;;
18867;SDS011;9563;49.240;9.088;2023-09-19T12:13:58;4.07;;;1.05;;
18867;SDS011;9563;49.240;9.088;2023-09-19T12:16:28;1.92;;;0.80;;
18867;SDS011;9563;49.240;9.088;2023-09-19T12:18:55;3.25;;;1.17;;
18867;SDS011;9563;49.240;9.088;2023-09-19T12:21:24;7.20;;;1.70;;
18867;SDS011;9563;49.240;9.088;2023-09-19T12:24:07;3.25;;;1.00;;
18867;SDS011;9563;49.240;9.088;2023-09-19T12:26:41;3.45;;;0.98;;
18867;SDS011;9563;49.240;9.088;2023-09-19T12:29:20;5.60;;;1.20;;
18867;SDS011;9563;49.240;9.088;2023-09-19T12:31:50;4.13;;;1.00;;
18867;SDS011;9563;49.240;9.088;2023-09-19T12:34:20;4.30;;;0.80;;
18867;SDS011;9563;49.240;9.088;2023-09-19T12:39:41;4.20;;;1.10;;
18867;SDS011;9563;49.240;9.088;2023-09-19T12:42:10;4.50;;;1.17;;
18867;SDS011;9563;49.240;9.088;2023-09-19T12:44:40;4.63;;;1.38;;
18867;SDS011;9563;49.240;9.088;2023-09-19T12:47:10;6.05;;;1.20;;
18867;SDS011;9563;49.240;9.088;2023-09-19T12:52:38;2.75;;;0.75;;
18867;SDS011;9563;49.240;9.088;2023-09-19T12:55:06;2.13;;;1.00;;
18867;SDS011;9563;49.240;9.088;2023-09-19T12:57:34;2.05;;;0.90;;
18867;SDS011;9563;49.240;9.088;2023-09-19T13:00:01;2.13;;;0.80;;
18867;SDS011;9563;49.240;9.088;2023-09-19T13:02:32;5.13;;;1.55;;
18867;SDS011;9563;49.240;9.088;2023-09-19T13:04:59;3.50;;;1.02;;
18867;SDS011;9563;49.240;9.088;2023-09-19T13:07:42;13.90;;;1.83;;
18867;SDS011;9563;49.240;9.088;2023-09-19T13:10:14;3.33;;;1.00;;
18867;SDS011;9563;49.240;9.088;2023-09-19T13:12:42;6.97;;;1.05;;
18867;SDS011;9563;49.240;9.088;2023-09-19T13:15:12;4.10;;;1.08;;
18867;SDS011;9563;49.240;9.088;2023-09-19T13:17:47;3.67;;;1.30;;
18867;SDS011;9563;49.240;9.088;2023-09-19T13:20:21;1.92;;;1.10;;
18867;SDS011;9563;49.240;9.088;2023-09-19T13:22:52;2.25;;;0.88;;
18867;SDS011;9563;49.240;9.088;2023-09-19T13:25:25;2.63;;;1.10;;
18867;SDS011;9563;49.240;9.088;2023-09-19T13:27:56;5.18;;;1.20;;
18867;SDS011;9563;49.240;9.088;2023-09-19T13:30:25;5.55;;;1.10;;
18867;SDS011;9563;49.240;9.088;2023-09-19T13:33:05;3.00;;;1.08;;
18867;SDS011;9563;49.240;9.088;2023-09-19T13:35:34;3.97;;;1.08;;
18867;SDS011;9563;49.240;9.088;2023-09-19T13:38:02;4.13;;;1.00;;
18867;SDS011;9563;49.240;9.088;2023-09-19T13:40:29;3.90;;;1.13;;
18867;SDS011;9563;49.240;9.088;2023-09-19T13:43:00;2.17;;;1.05;;
18867;SDS011;9563;49.240;9.088;2023-09-19T13:45:27;2.15;;;1.23;;
18867;SDS011;9563;49.240;9.088;2023-09-19T13:47:55;2.85;;;1.00;;
18867;SDS011;9563;49.240;9.088;2023-09-19T13:50:24;6.18;;;0.90;;
18867;SDS011;9563;49.240;9.088;2023-09-19T13:52:54;1.50;;;0.88;;
18867;SDS011;9563;49.240;9.088;2023-09-19T13:55:21;2.17;;;1.00;;
18867;SDS011;9563;49.240;9.088;2023-09-19T13:57:49;2.38;;;0.90;;
18867;SDS011;9563;49.240;9.088;2023-09-19T14:00:19;2.28;;;1.00;;
18867;SDS011;9563;49.240;9.088;2023-09-19T14:02:47;2.45;;;1.20;;
18867;SDS011;9563;49.240;9.088;2023-09-19T14:05:16;2.97;;;1.10;;
18867;SDS011;9563;49.240;9.088;2023-09-19T14:07:45;2.22;;;0.95;;
18867;SDS011;9563;49.240;9.088;2023-09-19T14:10:12;3.53;;;1.08;;
18867;SDS011;9563;49.240;9.088;2023-09-19T14:12:39;2.78;;;1.00;;
18867;SDS011;9563;49.240;9.088;2023-09-19T14:15:07;3.75;;;1.20;;
18867;SDS011;9563;49.240;9.088;2023-09-19T14:17:35;12.65;;;1.50;;
18867;SDS011;9563;49.240;9.088;2023-09-19T14:20:02;5.00;;;1.00;;
18867;SDS011;9563;49.240;9.088;2023-09-19T14:22:31;3.17;;;1.15;;
18867;SDS011;9563;49.240;9.088;2023-09-19T14:25:00;3.42;;;1.10;;
18867;SDS011;9563;49.240;9.088;2023-09-19T14:27:27;4.72;;;1.02;;
18867;SDS011;9563;49.240;9.088;2023-09-19T14:29:54;3.00;;;1.10;;
18867;SDS011;9563;49.240;9.088;2023-09-19T14:32:22;2.38;;;1.08;;
18867;SDS011;9563;49.240;9.088;2023-09-19T14:34:48;2.85;;;0.90;;
18867;SDS011;9563;49.240;9.088;2023-09-19T14:37:15;2.80;;;1.00;;
18867;SDS011;9563;49.240;9.088;2023-09-19T14:39:42;2.03;;;1.02;;
18867;SDS011;9563;49.240;9.088;2023-09-19T14:42:11;2.50;;;0.88;;
18867;SDS011;9563;49.240;9.088;2023-09-19T14:44:39;4.55;;;0.98;;
18867;SDS011;9563;49.240;9.088;2023-09-19T14:47:06;5.20;;;1.38;;
18867;SDS011;9563;49.240;9.088;2023-09-19T14:49:33;3.42;;;0.95;;
18867;SDS011;9563;49.240;9.088;2023-09-19T14:52:03;2.15;;;0.77;;
18867;SDS011;9563;49.240;9.088;2023-09-19T14:54:30;2.15;;;1.15;;
18867;SDS011;9563;49.240;9.088;2023-09-19T14:56:57;2.65;;;0.95;;
18867;SDS011;9563;49.240;9.088;2023-09-19T14:59:31;2.70;;;0.90;;
18867;SDS011;9563;49.240;9.088;2023-09-19T15:01:58;3.88;;;1.08;;
18867;SDS011;9563;49.240;9.088;2023-09-19T15:04:25;2.55;;;1.00;;
18867;SDS011;9563;49.240;9.088;2023-09-19T15:06:53;2.95;;;0.90;;
18867;SDS011;9563;49.240;9.088;2023-09-19T15:09:20;3.72;;;0.93;;
18867;SDS011;9563;49.240;9.088;2023-09-19T15:11:49;1.70;;;0.80;;
18867;SDS011;9563;49.240;9.088;2023-09-19T15:14:17;3.20;;;0.90;;
18867;SDS011;9563;49.240;9.088;2023-09-19T15:16:45;2.08;;;1.10;;
18867;SDS011;9563;49.240;9.088;2023-09-19T15:19:13;4.03;;;0.85;;
18867;SDS011;9563;49.240;9.088;2023-09-19T15:21:40;4.97;;;1.00;;
18867;SDS011;9563;49.240;9.088;2023-09-19T15:24:07;1.63;;;1.10;;
18867;SDS011;9563;49.240;9.088;2023-09-19T15:26:35;3.20;;;1.00;;
18867;SDS011;9563;49.240;9.088;2023-09-19T15:29:04;2.17;;;1.13;;
18867;SDS011;9563;49.240;9.088;2023-09-19T15:31:31;2.83;;;1.17;;
18867;SDS011;9563;49.240;9.088;2023-09-19T15:33:59;3.53;;;1.25;;
18867;SDS011;9563;49.240;9.088;2023-09-19T15:36:26;3.28;;;0.90;;
18867;SDS011;9563;49.240;9.088;2023-09-19T15:38:57;1.05;;;0.68;;
18867;SDS011;9563;49.240;9.088;2023-09-19T15:41:26;1.85;;;0.90;;
18867;SDS011;9563;49.240;9.088;2023-09-19T15:43:53;4.88;;;1.38;;
18867;SDS011;9563;49.240;9.088;2023-09-19T15:46:21;6.15;;;1.20;;
18867;SDS011;9563;49.240;9.088;2023-09-19T15:48:47;5.82;;;1.10;;
18867;SDS011;9563;49.240;9.088;2023-09-19T15:51:16;2.15;;;0.73;;
18867;SDS011;9563;49.240;9.088;2023-09-19T15:53:45;4.40;;;0.80;;
18867;SDS011;9563;49.240;9.088;2023-09-19T15:56:13;2.03;;;0.80;;
18867;SDS011;9563;49.240;9.088;2023-09-19T15:58:43;1.05;;;0.80;;
18867;SDS011;9563;49.240;9.088;2023-09-19T16:01:11;2.28;;;0.80;;
18867;SDS011;9563;49.240;9.088;2023-09-19T16:03:38;1.27;;;0.70;;
18867;SDS011;9563;49.240;9.088;2023-09-19T16:06:08;2.05;;;0.70;;
18867;SDS011;9563;49.240;9.088;2023-09-19T16:08:39;12.18;;;1.33;;
18867;SDS011;9563;49.240;9.088;2023-09-19T16:11:06;1.52;;;0.50;;
18867;SDS011;9563;49.240;9.088;2023-09-19T16:13:34;1.13;;;0.70;;
18867;SDS011;9563;49.240;9.088;2023-09-19T16:16:01;4.72;;;0.98;;
18867;SDS011;9563;49.240;9.088;2023-09-19T16:18:28;2.05;;;0.93;;
18867;SDS011;9563;49.240;9.088;2023-09-19T16:21:00;2.92;;;0.80;;
18867;SDS011;9563;49.240;9.088;2023-09-19T16:23:28;2.90;;;0.90;;
18867;SDS011;9563;49.240;9.088;2023-09-19T16:26:02;1.73;;;1.00;;
18867;SDS011;9563;49.240;9.088;2023-09-19T16:28:31;5.07;;;1.08;;
18867;SDS011;9563;49.240;9.088;2023-09-19T16:30:59;1.33;;;0.70;;
18867;SDS011;9563;49.240;9.088;2023-09-19T16:33:26;5.63;;;1.10;;
18867;SDS011;9563;49.240;9.088;2023-09-19T16:35:54;5.55;;;1.00;;
18867;SDS011;9563;49.240;9.088;2023-09-19T16:38:21;4.05;;;0.95;;
18867;SDS011;9563;49.240;9.088;2023-09-19T16:40:52;2.80;;;0.93;;
18867;SDS011;9563;49.240;9.088;2023-09-19T16:43:21;4.90;;;1.05;;
18867;SDS011;9563;49.240;9.088;2023-09-19T16:45:54;1.80;;;0.75;;
18867;SDS011;9563;49.240;9.088;2023-09-19T16:48:22;7.72;;;1.08;;
18867;SDS011;9563;49.240;9.088;2023-09-19T16:50:49;4.38;;;0.80;;
18867;SDS011;9563;49.240;9.088;2023-09-19T16:53:17;3.13;;;0.90;;
18867;SDS011;9563;49.240;9.088;2023-09-19T16:55:44;4.90;;;1.08;;
18867;SDS011;9563;49.240;9.088;2023-09-19T16:58:11;1.08;;;0.68;;
18867;SDS011;9563;49.240;9.088;2023-09-19T17:00:40;2.03;;;0.82;;
18867;SDS011;9563;49.240;9.088;2023-09-19T17:03:08;1.17;;;0.60;;
18867;SDS011;9563;49.240;9.088;2023-09-19T17:05:36;1.90;;;0.93;;
18867;SDS011;9563;49.240;9.088;2023-09-19T17:08:05;1.17;;;0.70;;
18867;SDS011;9563;49.240;9.088;2023-09-19T17:10:32;1.35;;;0.80;;
18867;SDS011;9563;49.240;9.088;2023-09-19T17:12:59;2.05;;;0.70;;
18867;SDS011;9563;49.240;9.088;2023-09-19T17:15:26;2.30;;;0.85;;
18867;SDS011;9563;49.240;9.088;2023-09-19T17:17:56;4.75;;;0.73;;
18867;SDS011;9563;49.240;9.088;2023-09-19T17:20:23;4.03;;;0.98;;
18867;SDS011;9563;49.240;9.088;2023-09-19T17:22:50;2.78;;;0.88;;
18867;SDS011;9563;49.240;9.088;2023-09-19T17:25:21;4.22;;;1.02;;
18867;SDS011;9563;49.240;9.088;2023-09-19T17:27:49;7.50;;;0.70;;
18867;SDS011;9563;49.240;9.088;2023-09-19T17:30:16;11.65;;;1.88;;
18867;SDS011;9563;49.240;9.088;2023-09-19T17:32:44;9.65;;;1.40;;
18867;SDS011;9563;49.240;9.088;2023-09-19T17:35:13;4.63;;;1.13;;
18867;SDS011;9563;49.240;9.088;2023-09-19T17:37:42;6.78;;;0.98;;
18867;SDS011;9563;49.240;9.088;2023-09-19T17:40:10;4.57;;;0.95;;
18867;SDS011;9563;49.240;9.088;2023-09-19T17:42:38;5.63;;;0.90;;
18867;SDS011;9563;49.240;9.088;2023-09-19T17:45:07;2.85;;;0.80;;
18867;SDS011;9563;49.240;9.088;2023-09-19T17:47:35;4.20;;;0.93;;
18867;SDS011;9563;49.240;9.088;2023-09-19T17:50:03;6.47;;;1.02;;
18867;SDS011;9563;49.240;9.088;2023-09-19T17:52:31;2.13;;;0.82;;
18867;SDS011;9563;49.240;9.088;2023-09-19T17:54:59;5.78;;;1.00;;
18867;SDS011;9563;49.240;9.088;2023-09-19T17:57:25;7.72;;;0.80;;
18867;SDS011;9563;49.240;9.088;2023-09-19T17:59:52;5.00;;;0.95;;
18867;SDS011;9563;49.240;9.088;2023-09-19T18:02:19;4.47;;;1.20;;
18867;SDS011;9563;49.240;9.088;2023-09-19T18:04:46;3.05;;;0.98;;
18867;SDS011;9563;49.240;9.088;2023-09-19T18:07:14;2.53;;;1.00;;
18867;SDS011;9563;49.240;9.088;2023-09-19T18:09:42;1.05;;;0.90;;
18867;SDS011;9563;49.240;9.088;2023-09-19T18:12:09;1.63;;;0.77;;
18867;SDS011;9563;49.240;9.088;2023-09-19T18:14:36;2.83;;;0.80;;
18867;SDS011;9563;49.240;9.088;2023-09-19T18:17:03;3.50;;;0.90;;
18867;SDS011;9563;49.240;9.088;2023-09-19T18:19:31;1.05;;;0.70;;
18867;SDS011;9563;49.240;9.088;2023-09-19T18:21:58;3.78;;;0.90;;
18867;SDS011;9563;49.240;9.088;2023-09-19T18:24:28;8.68;;;0.80;;
18867;SDS011;9563;49.240;9.088;2023-09-19T18:26:56;1.98;;;0.80;;
18867;SDS011;9563;49.240;9.088;2023-09-19T18:29:23;3.25;;;1.05;;
18867;SDS011;9563;49.240;9.088;2023-09-19T18:31:52;2.83;;;1.02;;
18867;SDS011;9563;49.240;9.088;2023-09-19T18:34:19;0.80;;;0.80;;
18867;SDS011;9563;49.240;9.088;2023-09-19T18:36:46;4.15;;;1.02;;
18867;SDS011;9563;49.240;9.088;2023-09-19T18:39:14;2.38;;;0.90;;
18867;SDS011;9563;49.240;9.088;2023-09-19T18:41:45;4.68;;;1.27;;
18867;SDS011;9563;49.240;9.088;2023-09-19T18:44:13;2.22;;;0.90;;
18867;SDS011;9563;49.240;9.088;2023-09-19T18:46:40;4.03;;;1.17;;
18867;SDS011;9563;49.240;9.088;2023-09-19T18:49:08;3.13;;;1.27;;
18867;SDS011;9563;49.240;9.088;2023-09-19T18:51:36;2.58;;;0.85;;
18867;SDS011;9563;49.240;9.088;2023-09-19T18:54:05;3.13;;;1.38;;
18867;SDS011;9563;49.240;9.088;2023-09-19T18:56:32;5.93;;;1.38;;
18867;SDS011;9563;49.240;9.088;2023-09-19T18:59:02;3.30;;;1.15;;
18867;SDS011;9563;49.240;9.088;2023-09-19T19:01:31;7.85;;;1.10;;
18867;SDS011;9563;49.240;9.088;2023-09-19T19:03:58;3.92;;;1.52;;
18867;SDS011;9563;49.240;9.088;2023-09-19T19:06:25;8.63;;;1.85;;
18867;SDS011;9563;49.240;9.088;2023-09-19T19:08:52;4.55;;;1.42;;
18867;SDS011;9563;49.240;9.088;2023-09-19T19:11:19;6.43;;;1.10;;
18867;SDS011;9563;49.240;9.088;2023-09-19T19:13:47;5.50;;;1.00;;
18867;SDS011;9563;49.240;9.088;2023-09-19T19:16:14;2.90;;;1.20;;
18867;SDS011;9563;49.240;9.088;2023-09-19T19:18:43;3.38;;;1.20;;
18867;SDS011;9563;49.240;9.088;2023-09-19T19:21:10;3.53;;;1.02;;
18867;SDS011;9563;49.240;9.088;2023-09-19T19:23:41;2.00;;;0.90;;
18867;SDS011;9563;49.240;9.088;2023-09-19T19:26:08;3.20;;;0.93;;
18867;SDS011;9563;49.240;9.088;2023-09-19T19:28:37;3.90;;;1.13;;
18867;SDS011;9563;49.240;9.088;2023-09-19T19:31:05;1.90;;;1.00;;
18867;SDS011;9563;49.240;9.088;2023-09-19T19:33:33;2.35;;;0.93;;
18867;SDS011;9563;49.240;9.088;2023-09-19T19:36:05;2.75;;;1.30;;